Time;durP1;ratioP1;P1;durP2;ratioP2;P2;SDS_P1;SDS_P2;PMS_P1;PMS_P2;Temp;Humidity;BMP_temperature;BMP_pressure;BME280_temperature;BME280_humidity;BME280_pressure;Samples;Min_cycle;Max_cycle;Signal;HPM_P1;HPM_P2
2021/06/17 00:04:01;;;;;;;7.37;3.67;;;;;;;;;;10533294;28;20206;-70
2021/06/17 00:09:04;;;;;;;11.23;5.40;;;;;;;;;;10534378;28;20240;-69
2021/06/17 00:14:07;;;;;;;8.17;3.83;;;;;;;;;;10532912;28;20227;-70
2021/06/17 00:19:11;;;;;;;7.80;4.00;;;;;;;;;;10533294;28;20221;-70
2021/06/17 00:24:13;;;;;;;8.67;4.20;;;;;;;;;;10528941;28;20222;-68
2021/06/17 00:29:16;;;;;;;8.70;3.60;;;;;;;;;;10532911;28;20574;-68
2021/06/17 00:34:20;;;;;;;8.00;4.03;;;;;;;;;;10527093;28;20654;-68
2021/06/17 00:39:22;;;;;;;8.37;4.20;;;;;;;;;;10533822;28;20215;-69
2021/06/17 00:44:25;;;;;;;8.47;4.27;;;;;;;;;;10532528;28;20269;-69
2021/06/17 00:49:29;;;;;;;8.67;4.37;;;;;;;;;;10529200;28;20303;-70
2021/06/17 00:54:34;;;;;;;6.60;4.17;;;;;;;;;;10528919;28;20191;-70
2021/06/17 00:59:37;;;;;;;7.27;3.50;;;;;;;;;;10534957;28;20220;-71
2021/06/17 01:04:41;;;;;;;8.63;3.90;;;;;;;;;;10532439;28;20237;-70
2021/06/17 01:09:48;;;;;;;7.33;4.00;;;;;;;;;;10532072;28;20583;-71
2021/06/17 01:14:53;;;;;;;7.00;3.97;;;;;;;;;;10534182;28;20280;-70
2021/06/17 01:20:03;;;;;;;10.53;4.37;;;;;;;;;;10530550;28;20265;-68
2021/06/17 01:25:14;;;;;;;6.83;3.80;;;;;;;;;;10527264;28;20276;-69
2021/06/17 01:30:20;;;;;;;7.10;4.10;;;;;;;;;;10529947;28;20687;-69
2021/06/17 01:35:25;;;;;;;6.93;4.07;;;;;;;;;;10530438;28;20201;-68
2021/06/17 01:40:28;;;;;;;7.90;4.50;;;;;;;;;;10519046;28;20690;-68
2021/06/17 01:45:32;;;;;;;7.13;4.30;;;;;;;;;;10533530;28;20191;-70
2021/06/17 01:50:35;;;;;;;8.13;4.40;;;;;;;;;;10524992;28;20235;-69
2021/06/17 01:55:39;;;;;;;9.03;4.93;;;;;;;;;;10544662;28;20286;-69
2021/06/17 02:00:44;;;;;;;8.33;4.50;;;;;;;;;;10524923;28;20203;-69
2021/06/17 02:05:48;;;;;;;8.70;4.63;;;;;;;;;;10528442;28;20256;-70
2021/06/17 02:10:51;;;;;;;7.23;4.07;;;;;;;;;;10532481;28;20327;-70
2021/06/17 02:15:57;;;;;;;7.43;4.70;;;;;;;;;;10529190;28;20261;-68
2021/06/17 02:21:00;;;;;;;10.03;4.80;;;;;;;;;;10530757;28;20245;-69
2021/06/17 02:26:04;;;;;;;7.13;4.60;;;;;;;;;;10527271;28;20593;-70
2021/06/17 02:31:10;;;;;;;8.53;4.73;;;;;;;;;;10522717;28;20230;-68
2021/06/17 02:36:13;;;;;;;7.77;4.90;;;;;;;;;;10525281;28;20276;-69
2021/06/17 02:41:18;;;;;;;8.23;4.70;;;;;;;;;;10528309;28;20294;-68
2021/06/17 02:46:22;;;;;;;7.53;4.70;;;;;;;;;;10528313;28;20212;-69
2021/06/17 02:51:25;;;;;;;7.57;4.33;;;;;;;;;;10529269;28;20184;-70
2021/06/17 02:56:29;;;;;;;7.80;4.67;;;;;;;;;;10517386;28;20318;-68
2021/06/17 03:01:35;;;;;;;9.67;4.90;;;;;;;;;;10525298;28;20244;-69
2021/06/17 03:06:40;;;;;;;9.33;4.87;;;;;;;;;;10544039;28;20878;-68
2021/06/17 03:11:45;;;;;;;8.40;5.47;;;;;;;;;;10524753;28;20232;-69
2021/06/17 03:16:51;;;;;;;7.93;4.77;;;;;;;;;;10526343;28;20634;-69
2021/06/17 03:21:56;;;;;;;12.90;5.23;;;;;;;;;;10537584;28;20290;-69
2021/06/17 03:27:01;;;;;;;8.77;4.57;;;;;;;;;;10527132;28;20640;-69
2021/06/17 03:32:07;;;;;;;10.07;4.83;;;;;;;;;;10524970;28;20184;-69
2021/06/17 03:37:09;;;;;;;8.90;4.80;;;;;;;;;;10527743;28;20223;-69
2021/06/17 03:42:13;;;;;;;7.40;4.57;;;;;;;;;;10525505;28;20713;-68
2021/06/17 03:47:18;;;;;;;8.37;5.00;;;;;;;;;;10527145;28;20220;-69
2021/06/17 03:52:20;;;;;;;8.20;5.00;;;;;;;;;;10525814;28;20223;-69
2021/06/17 03:57:23;;;;;;;9.13;4.87;;;;;;;;;;10524369;28;20243;-68
2021/06/17 04:02:28;;;;;;;9.43;5.00;;;;;;;;;;10523365;28;20291;-69
2021/06/17 04:07:33;;;;;;;8.30;4.87;;;;;;;;;;10524808;28;20243;-68
2021/06/17 04:12:36;;;;;;;9.23;4.90;;;;;;;;;;10525531;28;20630;-70
2021/06/17 04:18:01;;;;;;;8.60;4.87;;;;;;;;;;10518701;28;20223;-69
2021/06/17 04:23:25;;;;;;;11.37;5.50;;;;;;;;;;10526349;28;20341;-70
2021/06/17 04:28:28;;;;;;;10.10;4.73;;;;;;;;;;10529535;28;20211;-69
2021/06/17 04:33:32;;;;;;;10.33;5.27;;;;;;;;;;10532329;28;20200;-70
2021/06/17 04:38:34;;;;;;;10.07;4.80;;;;;;;;;;10533797;28;20270;-69
2021/06/17 04:43:37;;;;;;;8.70;4.53;;;;;;;;;;10532806;28;20667;-70
2021/06/17 04:48:42;;;;;;;8.10;4.70;;;;;;;;;;10531769;28;20247;-69
2021/06/17 04:53:44;;;;;;;6.43;3.90;;;;;;;;;;10529979;28;20184;-70
2021/06/17 04:58:49;;;;;;;11.20;5.10;;;;;;;;;;10555704;28;20246;-69
2021/06/17 05:03:53;;;;;;;9.17;4.73;;;;;;;;;;10543912;28;20302;-69
2021/06/17 05:14:15;;;;;;;9.43;4.83;;;;;;;;;;10532559;28;20258;-69
2021/06/17 05:19:19;;;;;;;10.23;4.73;;;;;;;;;;10532146;28;20733;-69
2021/06/17 05:24:22;;;;;;;9.80;4.93;;;;;;;;;;10523008;28;20277;-69
2021/06/17 05:29:24;;;;;;;9.67;4.90;;;;;;;;;;10528486;28;20575;-68
2021/06/17 05:34:28;;;;;;;10.53;4.63;;;;;;;;;;10530569;28;20211;-69
2021/06/17 05:39:31;;;;;;;8.83;4.73;;;;;;;;;;10555238;27;20223;-68
2021/06/17 05:44:33;;;;;;;8.30;4.57;;;;;;;;;;10550641;27;20659;-67
2021/06/17 05:49:37;;;;;;;8.10;4.73;;;;;;;;;;10531353;28;20239;-67
2021/06/17 05:54:40;;;;;;;10.17;4.33;;;;;;;;;;10534344;28;20642;-68
2021/06/17 05:59:42;;;;;;;7.47;4.60;;;;;;;;;;10543146;28;20211;-67
2021/06/17 06:04:46;;;;;;;8.40;4.27;;;;;;;;;;10545774;28;20242;-68
2021/06/17 06:09:49;;;;;;;10.50;4.10;;;;;;;;;;10541023;28;20213;-68
2021/06/17 06:14:51;;;;;;;7.93;4.27;;;;;;;;;;10551075;28;20725;-67
2021/06/17 06:19:55;;;;;;;9.83;4.47;;;;;;;;;;10547612;28;20293;-67
2021/06/17 06:24:58;;;;;;;8.47;4.20;;;;;;;;;;10547702;28;20294;-68
2021/06/17 06:30:03;;;;;;;9.00;4.20;;;;;;;;;;10546973;28;20219;-68
2021/06/17 06:35:07;;;;;;;9.10;4.67;;;;;;;;;;10535753;28;20199;-69
2021/06/17 06:40:11;;;;;;;7.77;4.30;;;;;;;;;;10539958;28;20962;-67
2021/06/17 06:45:14;;;;;;;9.43;4.87;;;;;;;;;;10539882;28;20211;-68
2021/06/17 06:50:19;;;;;;;7.70;4.75;;;;;;;;;;10546809;28;20242;-68
2021/06/17 06:55:21;;;;;;;9.80;4.83;;;;;;;;;;10541349;28;20195;-68
2021/06/17 07:00:24;;;;;;;11.43;5.10;;;;;;;;;;10537049;28;20215;-69
2021/06/17 07:05:28;;;;;;;9.07;4.63;;;;;;;;;;10522367;28;20246;-68
2021/06/17 07:10:30;;;;;;;11.87;4.47;;;;;;;;;;10528939;28;20247;-69
2021/06/17 07:15:33;;;;;;;7.75;3.95;;;;;;;;;;10522612;28;20679;-68
2021/06/17 07:20:37;;;;;;;9.80;4.30;;;;;;;;;;10525245;28;20256;-68
2021/06/17 07:25:39;;;;;;;7.63;4.00;;;;;;;;;;10520668;28;20611;-69
2021/06/17 07:30:42;;;;;;;12.60;4.53;;;;;;;;;;10520034;28;20219;-69
2021/06/17 07:35:46;;;;;;;8.95;4.03;;;;;;;;;;10528932;28;20190;-68
2021/06/17 07:40:49;;;;;;;7.97;4.28;;;;;;;;;;10523002;28;20222;-69
2021/06/17 07:45:51;;;;;;;9.45;4.32;;;;;;;;;;10529049;28;20233;-68
2021/06/17 07:50:55;;;;;;;9.18;4.53;;;;;;;;;;10522503;28;20235;-68
2021/06/17 07:55:58;;;;;;;9.02;5.22;;;;;;;;;;10537302;28;20183;-69
2021/06/17 08:01:00;;;;;;;7.45;4.25;;;;;;;;;;10546597;28;20219;-69
2021/06/17 08:06:05;;;;;;;12.10;5.00;;;;;;;;;;10543942;28;20212;-68
2021/06/17 08:11:11;;;;;;;9.48;4.63;;;;;;;;;;10541306;28;20678;-67
2021/06/17 08:16:27;;;;;;;8.85;4.65;;;;;;;;;;10543082;28;20219;-67
2021/06/17 08:21:31;;;;;;;7.95;4.15;;;;;;;;;;10533451;28;20512;-68
2021/06/17 08:26:34;;;;;;;8.32;4.43;;;;;;;;;;10532201;28;20215;-70
2021/06/17 08:31:38;;;;;;;9.02;5.15;;;;;;;;;;10536735;28;20191;-68
2021/06/17 08:36:42;;;;;;;7.53;4.38;;;;;;;;;;10542326;28;20306;-68
2021/06/17 08:41:45;;;;;;;7.63;4.55;;;;;;;;;;10547460;28;20199;-68
2021/06/17 08:46:48;;;;;;;9.02;4.65;;;;;;;;;;10560312;28;20224;-69
2021/06/17 08:51:52;;;;;;;8.05;4.80;;;;;;;;;;10527681;28;20638;-69
2021/06/17 08:56:54;;;;;;;6.90;4.20;;;;;;;;;;10536609;28;20215;-69
2021/06/17 09:01:58;;;;;;;8.25;5.03;;;;;;;;;;10546009;28;20286;-70
2021/06/17 09:07:04;;;;;;;7.68;5.25;;;;;;;;;;10529477;28;20704;-70
2021/06/17 09:12:08;;;;;;;6.80;5.43;;;;;;;;;;10528262;28;20201;-69
2021/06/17 09:17:10;;;;;;;9.70;7.22;;;;;;;;;;10529750;28;20232;-69
2021/06/17 09:22:15;;;;;;;8.02;5.35;;;;;;;;;;10547018;28;20260;-69
2021/06/17 09:27:22;;;;;;;8.05;5.78;;;;;;;;;;10529996;28;20221;-69
2021/06/17 09:32:26;;;;;;;8.38;6.10;;;;;;;;;;10535351;28;20256;-70
2021/06/17 09:37:35;;;;;;;8.40;6.22;;;;;;;;;;10525151;28;20301;-70
2021/06/17 09:42:37;;;;;;;9.10;8.20;;;;;;;;;;10529666;28;20552;-70
2021/06/17 09:47:40;;;;;;;9.13;6.65;;;;;;;;;;10521261;28;20286;-70
2021/06/17 09:52:45;;;;;;;6.63;5.57;;;;;;;;;;10527950;28;20666;-70
2021/06/17 09:57:48;;;;;;;5.07;4.60;;;;;;;;;;10531396;28;20256;-70
2021/06/17 10:02:50;;;;;;;6.88;4.22;;;;;;;;;;10529433;28;20274;-69
2021/06/17 10:07:54;;;;;;;6.70;4.70;;;;;;;;;;10533370;28;20208;-70
2021/06/17 10:12:58;;;;;;;7.97;4.72;;;;;;;;;;10529500;28;20245;-70
2021/06/17 10:18:01;;;;;;;6.97;4.90;;;;;;;;;;10529282;28;20223;-70
2021/06/17 10:23:06;;;;;;;8.38;5.53;;;;;;;;;;10522898;28;20235;-70
2021/06/17 10:28:08;;;;;;;7.00;4.43;;;;;;;;;;10527745;28;20206;-70
2021/06/17 10:33:27;;;;;;;5.70;4.90;;;;;;;;;;10527954;28;20207;-69
2021/06/17 10:38:31;;;;;;;6.88;4.43;;;;;;;;;;10519720;28;20270;-71
2021/06/17 10:43:34;;;;;;;6.93;4.90;;;;;;;;;;10529762;28;20191;-68
2021/06/17 10:48:42;;;;;;;6.03;4.70;;;;;;;;;;10523732;28;20218;-70
2021/06/17 10:53:53;;;;;;;5.20;4.57;;;;;;;;;;10525221;28;20211;-69
2021/06/17 10:58:57;;;;;;;6.30;4.43;;;;;;;;;;10520409;28;20283;-69
2021/06/17 11:04:07;;;;;;;6.97;4.50;;;;;;;;;;10539836;28;20650;-69
2021/06/17 11:09:25;;;;;;;5.28;3.90;;;;;;;;;;10515201;28;20696;-70
2021/06/17 11:14:38;;;;;;;4.55;3.95;;;;;;;;;;10521723;28;20238;-70
2021/06/17 11:19:55;;;;;;;4.35;3.72;;;;;;;;;;10537522;28;20332;-68
2021/06/17 11:25:10;;;;;;;4.90;3.60;;;;;;;;;;10540755;28;20202;-69
2021/06/17 11:30:15;;;;;;;3.58;3.22;;;;;;;;;;10534904;28;20212;-68
2021/06/17 11:35:22;;;;;;;6.30;3.10;;;;;;;;;;10539826;28;20256;-71
2021/06/17 11:40:24;;;;;;;4.65;3.20;;;;;;;;;;10544887;28;20696;-70
2021/06/17 11:45:32;;;;;;;4.32;3.10;;;;;;;;;;10540920;28;20560;-68
2021/06/17 11:50:42;;;;;;;4.38;3.08;;;;;;;;;;10537590;28;20678;-69
2021/06/17 11:55:48;;;;;;;4.95;3.20;;;;;;;;;;10543963;28;20345;-68
2021/06/17 12:00:52;;;;;;;4.13;2.90;;;;;;;;;;10542343;28;20222;-69
2021/06/17 12:06:05;;;;;;;5.18;2.90;;;;;;;;;;10546185;28;20198;-70
2021/06/17 12:11:16;;;;;;;4.20;3.10;;;;;;;;;;10543856;28;20187;-69
2021/06/17 12:16:20;;;;;;;4.22;2.83;;;;;;;;;;10537816;28;20245;-69
2021/06/17 12:21:28;;;;;;;3.25;2.80;;;;;;;;;;10524803;28;20195;-70
2021/06/17 12:26:31;;;;;;;4.68;2.80;;;;;;;;;;10527608;28;20225;-69
2021/06/17 12:31:38;;;;;;;4.40;2.70;;;;;;;;;;10519582;28;20198;-70
2021/06/17 12:36:41;;;;;;;3.20;2.50;;;;;;;;;;10521715;28;20223;-70
2021/06/17 12:41:46;;;;;;;3.58;2.78;;;;;;;;;;10524428;28;20567;-68
2021/06/17 12:46:55;;;;;;;4.45;3.20;;;;;;;;;;10518511;28;20231;-68
2021/06/17 12:52:04;;;;;;;6.25;3.28;;;;;;;;;;10532668;28;20719;-67
2021/06/17 12:57:07;;;;;;;6.60;3.40;;;;;;;;;;10523673;28;20223;-68
2021/06/17 13:02:12;;;;;;;7.38;3.90;;;;;;;;;;10534904;28;20195;-69
2021/06/17 13:07:15;;;;;;;6.75;3.30;;;;;;;;;;10538287;28;20208;-69
2021/06/17 13:12:20;;;;;;;4.80;3.25;;;;;;;;;;10549865;28;20311;-68
2021/06/17 13:17:24;;;;;;;5.00;2.85;;;;;;;;;;10550083;28;20713;-69
2021/06/17 13:22:27;;;;;;;5.00;3.15;;;;;;;;;;10546134;28;20266;-68
2021/06/17 13:27:30;;;;;;;7.45;3.10;;;;;;;;;;10551966;28;20286;-68
2021/06/17 13:32:34;;;;;;;6.30;2.88;;;;;;;;;;10546579;28;20238;-69
2021/06/17 13:37:36;;;;;;;5.20;3.00;;;;;;;;;;10533917;28;20219;-70
2021/06/17 13:42:39;;;;;;;5.55;2.80;;;;;;;;;;10530871;28;20214;-69
2021/06/17 13:47:43;;;;;;;5.63;2.85;;;;;;;;;;10529210;28;20223;-69
2021/06/17 13:52:46;;;;;;;4.45;2.90;;;;;;;;;;10532720;28;20270;-71
2021/06/17 13:57:49;;;;;;;4.35;2.75;;;;;;;;;;10525748;28;20302;-68
2021/06/17 14:02:55;;;;;;;4.32;2.80;;;;;;;;;;10531933;28;20310;-68
2021/06/17 14:07:58;;;;;;;5.85;2.75;;;;;;;;;;10526432;28;20250;-69
2021/06/17 14:13:01;;;;;;;5.38;2.70;;;;;;;;;;10530298;28;20238;-69
2021/06/17 14:18:08;;;;;;;6.63;3.92;;;;;;;;;;10532979;28;20219;-68
2021/06/17 14:23:11;;;;;;;3.90;2.70;;;;;;;;;;10533473;28;20199;-69
2021/06/17 14:28:13;;;;;;;4.60;3.20;;;;;;;;;;10527875;28;20626;-67
2021/06/17 14:33:18;;;;;;;4.78;2.40;;;;;;;;;;10530155;28;20203;-67
2021/06/17 14:38:21;;;;;;;5.50;2.83;;;;;;;;;;10529024;28;20623;-70
2021/06/17 14:43:24;;;;;;;5.95;2.90;;;;;;;;;;10527726;28;20199;-69
2021/06/17 14:48:28;;;;;;;6.20;3.05;;;;;;;;;;10533442;28;20672;-69
2021/06/17 14:53:30;;;;;;;4.88;2.55;;;;;;;;;;10524935;28;20196;-69
2021/06/17 14:58:33;;;;;;;4.10;2.40;;;;;;;;;;10526028;28;20246;-68
2021/06/17 15:03:37;;;;;;;4.40;2.70;;;;;;;;;;10525523;28;20274;-69
2021/06/17 15:08:40;;;;;;;3.88;2.28;;;;;;;;;;10526094;28;20208;-69
2021/06/17 15:13:42;;;;;;;4.47;2.40;;;;;;;;;;10525445;28;20233;-69
2021/06/17 15:18:46;;;;;;;4.05;2.45;;;;;;;;;;10520739;28;20227;-68
2021/06/17 15:23:49;;;;;;;4.82;2.50;;;;;;;;;;10524572;28;20634;-68
2021/06/17 15:28:52;;;;;;;5.03;2.50;;;;;;;;;;10525414;28;20253;-67
2021/06/17 15:33:56;;;;;;;5.25;2.47;;;;;;;;;;10529267;28;20685;-68
2021/06/17 15:38:58;;;;;;;6.93;3.53;;;;;;;;;;10524803;28;20203;-69
2021/06/17 15:44:01;;;;;;;4.72;2.50;;;;;;;;;;10524509;28;20539;-69
2021/06/17 15:49:05;;;;;;;3.83;2.65;;;;;;;;;;10523547;28;20304;-69
2021/06/17 15:54:07;;;;;;;4.85;2.88;;;;;;;;;;10522526;28;20212;-70
2021/06/17 15:59:10;;;;;;;4.80;2.88;;;;;;;;;;10528303;28;20227;-68
2021/06/17 16:04:14;;;;;;;5.75;3.65;;;;;;;;;;10518189;28;20297;-67
2021/06/17 16:09:17;;;;;;;6.47;2.90;;;;;;;;;;10525174;28;20948;-69
2021/06/17 16:14:19;;;;;;;6.20;3.30;;;;;;;;;;10524922;28;20575;-69
2021/06/17 16:19:23;;;;;;;6.05;2.70;;;;;;;;;;10526727;28;20695;-69
2021/06/17 16:24:26;;;;;;;4.25;2.35;;;;;;;;;;10527102;28;20627;-69
2021/06/17 16:29:29;;;;;;;4.97;2.90;;;;;;;;;;10534899;28;20255;-69
2021/06/17 16:34:32;;;;;;;3.88;2.70;;;;;;;;;;10533955;28;20235;-68
2021/06/17 16:39:35;;;;;;;6.65;3.30;;;;;;;;;;10534455;28;20678;-69
2021/06/17 16:44:38;;;;;;;4.18;2.80;;;;;;;;;;10533378;28;20192;-71
2021/06/17 16:49:42;;;;;;;5.03;2.50;;;;;;;;;;10525838;28;20258;-68
2021/06/17 16:54:44;;;;;;;5.50;2.80;;;;;;;;;;10531494;28;20216;-70
2021/06/17 16:59:48;;;;;;;7.07;3.72;;;;;;;;;;10531646;28;20250;-69
2021/06/17 17:04:52;;;;;;;5.95;3.00;;;;;;;;;;10525599;28;20704;-70
2021/06/17 17:09:55;;;;;;;7.72;4.03;;;;;;;;;;10532538;28;20220;-69
2021/06/17 17:14:57;;;;;;;7.63;3.80;;;;;;;;;;10530508;28;20251;-69
2021/06/17 17:20:01;;;;;;;7.65;4.32;;;;;;;;;;10536260;28;20307;-70
2021/06/17 17:25:04;;;;;;;6.97;3.28;;;;;;;;;;10534161;28;20667;-68
2021/06/17 17:30:07;;;;;;;7.35;3.35;;;;;;;;;;10520502;28;20280;-69
2021/06/17 17:35:14;;;;;;;6.00;3.28;;;;;;;;;;10530678;28;20223;-68
2021/06/17 17:40:17;;;;;;;7.25;3.38;;;;;;;;;;10529462;28;20291;-69
2021/06/17 17:45:20;;;;;;;5.68;3.05;;;;;;;;;;10531044;28;20333;-69
2021/06/17 17:50:24;;;;;;;6.72;3.42;;;;;;;;;;10530695;28;20219;-68
2021/06/17 17:55:27;;;;;;;7.93;3.40;;;;;;;;;;10529443;28;20589;-67
2021/06/17 18:00:29;;;;;;;5.45;3.00;;;;;;;;;;10526717;28;20723;-69
2021/06/17 18:05:34;;;;;;;7.40;3.38;;;;;;;;;;10535110;28;20196;-69
2021/06/17 18:10:37;;;;;;;6.10;3.38;;;;;;;;;;10531770;28;20242;-69
2021/06/17 18:15:41;;;;;;;8.60;3.60;;;;;;;;;;10529749;28;20333;-69
2021/06/17 18:20:45;;;;;;;6.35;3.30;;;;;;;;;;10530361;28;20209;-68
2021/06/17 18:25:48;;;;;;;5.72;3.15;;;;;;;;;;10529382;28;20198;-67
2021/06/17 18:30:51;;;;;;;5.55;3.67;;;;;;;;;;10528684;28;20218;-68
2021/06/17 18:35:55;;;;;;;7.53;3.58;;;;;;;;;;10531125;28;20223;-69
2021/06/17 18:40:59;;;;;;;7.07;3.55;;;;;;;;;;10528657;28;20219;-69
2021/06/17 18:46:01;;;;;;;8.05;3.42;;;;;;;;;;10527029;28;20188;-69
2021/06/17 18:51:06;;;;;;;7.65;3.80;;;;;;;;;;10527571;28;20215;-69
2021/06/17 18:56:10;;;;;;;7.25;3.97;;;;;;;;;;10517865;28;20488;-70
2021/06/17 19:01:14;;;;;;;7.00;3.60;;;;;;;;;;10525000;28;20188;-69
2021/06/17 19:06:18;;;;;;;7.28;3.67;;;;;;;;;;10527747;28;20664;-69
2021/06/17 19:11:23;;;;;;;5.72;3.67;;;;;;;;;;10525734;28;20604;-67
2021/06/17 19:16:25;;;;;;;8.48;4.05;;;;;;;;;;10530359;28;20231;-68
2021/06/17 19:21:29;;;;;;;7.05;3.75;;;;;;;;;;10528680;28;20206;-67
2021/06/17 19:26:32;;;;;;;6.80;4.10;;;;;;;;;;10541030;28;20319;-68
2021/06/17 19:31:35;;;;;;;7.63;4.22;;;;;;;;;;10528777;28;20203;-66
2021/06/17 19:36:39;;;;;;;18.45;13.32;;;;;;;;;;10529908;28;20217;-67
2021/06/17 19:41:41;;;;;;;10.38;4.97;;;;;;;;;;10527416;28;20223;-68
2021/06/17 19:46:44;;;;;;;7.95;4.72;;;;;;;;;;10530051;28;20224;-68
2021/06/17 19:51:48;;;;;;;10.07;5.90;;;;;;;;;;10521258;28;20195;-66
2021/06/17 19:57:04;;;;;;;10.82;6.03;;;;;;;;;;10516497;28;20331;-68
2021/06/17 20:02:07;;;;;;;10.80;6.13;;;;;;;;;;10537128;28;20187;-67
2021/06/17 20:07:12;;;;;;;12.02;6.72;;;;;;;;;;10527704;28;20302;-66
2021/06/17 20:12:15;;;;;;;9.73;5.28;;;;;;;;;;10546794;28;20519;-66
2021/06/17 20:17:18;;;;;;;9.82;6.38;;;;;;;;;;10542925;28;20210;-66
2021/06/17 20:22:23;;;;;;;8.60;5.68;;;;;;;;;;10552225;28;20191;-66
2021/06/17 20:27:26;;;;;;;10.57;7.00;;;;;;;;;;10552150;28;20681;-65
2021/06/17 20:32:29;;;;;;;15.63;10.95;;;;;;;;;;10549512;28;20604;-65
2021/06/17 20:37:35;;;;;;;10.68;6.78;;;;;;;;;;10552223;28;20223;-65
2021/06/17 20:42:37;;;;;;;9.45;5.93;;;;;;;;;;10552362;28;20564;-66
2021/06/17 20:47:40;;;;;;;10.73;7.05;;;;;;;;;;10552811;28;20884;-66
2021/06/17 20:52:44;;;;;;;10.35;5.15;;;;;;;;;;10547274;28;20237;-67
2021/06/17 20:57:47;;;;;;;27.95;21.02;;;;;;;;;;10529578;28;20290;-65
2021/06/17 21:02:49;;;;;;;11.63;5.60;;;;;;;;;;10533445;28;20274;-66
2021/06/17 21:07:53;;;;;;;10.25;6.55;;;;;;;;;;10539071;28;20215;-66
2021/06/17 21:12:56;;;;;;;12.23;8.60;;;;;;;;;;10551525;28;20191;-67
2021/06/17 21:18:04;;;;;;;11.23;6.70;;;;;;;;;;10541890;28;20235;-66
2021/06/17 21:23:08;;;;;;;11.07;7.45;;;;;;;;;;10541994;28;20193;-66
2021/06/17 21:28:11;;;;;;;12.07;7.25;;;;;;;;;;10544730;28;20216;-66
2021/06/17 21:33:13;;;;;;;15.33;6.87;;;;;;;;;;10544186;28;20769;-66
2021/06/17 21:38:17;;;;;;;12.20;7.50;;;;;;;;;;10543521;28;20235;-67
2021/06/17 21:43:21;;;;;;;11.07;6.83;;;;;;;;;;10539555;28;20192;-67
2021/06/17 21:48:25;;;;;;;12.67;7.20;;;;;;;;;;10536084;28;20298;-69
2021/06/17 21:53:29;;;;;;;12.93;7.63;;;;;;;;;;10531640;28;20205;-68
2021/06/17 21:58:32;;;;;;;11.17;7.07;;;;;;;;;;10526267;28;20204;-70
2021/06/17 22:03:34;;;;;;;12.73;7.13;;;;;;;;;;10532034;28;20547;-69
2021/06/17 22:08:38;;;;;;;11.37;7.10;;;;;;;;;;10527786;28;20239;-68
2021/06/17 22:13:41;;;;;;;12.53;7.23;;;;;;;;;;10527293;28;20216;-69
2021/06/17 22:18:43;;;;;;;12.27;6.70;;;;;;;;;;10523649;28;20269;-68
2021/06/17 22:23:47;;;;;;;10.23;6.20;;;;;;;;;;10529502;28;20202;-68
2021/06/17 22:28:50;;;;;;;11.17;6.50;;;;;;;;;;10530521;28;20667;-68
2021/06/17 22:33:53;;;;;;;10.23;6.40;;;;;;;;;;10516832;28;20200;-69
2021/06/17 22:38:56;;;;;;;10.60;6.60;;;;;;;;;;10539234;28;20210;-68
2021/06/17 22:43:59;;;;;;;10.77;7.20;;;;;;;;;;10519149;28;20195;-69
2021/06/17 22:49:01;;;;;;;10.93;5.80;;;;;;;;;;10522981;28;20246;-68
2021/06/17 22:54:05;;;;;;;10.43;6.40;;;;;;;;;;10519855;28;20192;-69
2021/06/17 22:59:08;;;;;;;12.40;6.40;;;;;;;;;;10522524;28;20303;-68
2021/06/17 23:04:11;;;;;;;9.70;6.23;;;;;;;;;;10521744;28;20595;-67
2021/06/17 23:09:15;;;;;;;10.23;6.30;;;;;;;;;;10523014;28;20215;-66
2021/06/17 23:14:17;;;;;;;10.27;6.13;;;;;;;;;;10521341;28;20310;-68
2021/06/17 23:19:20;;;;;;;11.33;6.13;;;;;;;;;;10527075;28;20290;-66
2021/06/17 23:24:24;;;;;;;10.70;6.60;;;;;;;;;;10521809;28;20196;-67
2021/06/17 23:29:27;;;;;;;11.57;6.73;;;;;;;;;;10523262;28;20306;-69
2021/06/17 23:34:29;;;;;;;11.87;6.73;;;;;;;;;;10523771;28;20665;-69
2021/06/17 23:39:33;;;;;;;12.77;6.60;;;;;;;;;;10524826;28;20272;-68
2021/06/17 23:44:36;;;;;;;9.37;5.63;;;;;;;;;;10528004;28;20722;-68
2021/06/17 23:49:40;;;;;;;10.63;6.70;;;;;;;;;;10521153;28;20212;-68
2021/06/17 23:54:44;;;;;;;10.33;6.80;;;;;;;;;;10519874;28;20219;-68
2021/06/17 23:59:46;;;;;;;10.77;6.60;;;;;;;;;;10513870;28;20214;-67
